Time;durP1;ratioP1;P1;durP2;ratioP2;P2;SDS_P1;SDS_P2;PMS_P1;PMS_P2;Temp;Humidity;BMP_temperature;BMP_pressure;BME280_temperature;BME280_humidity;BME280_pressure;Samples;Min_cycle;Max_cycle;Signal;HPM_P1;HPM_P2
2022/12/28 00:00:52;;;;;;;6.23;3.30;;;;;;;1.51;95.07;96240.94;5023333;28;20197;-84
2022/12/28 00:03:17;;;;;;;5.70;3.10;;;;;;;1.48;95.30;96239.34;5012407;28;20187;-84
2022/12/28 00:05:43;;;;;;;4.03;2.80;;;;;;;1.47;95.87;96236.88;5012149;28;20216;-84
2022/12/28 00:08:08;;;;;;;4.87;3.10;;;;;;;1.50;96.02;96231.59;5015183;28;20221;-85
2022/12/28 00:10:33;;;;;;;3.47;2.87;;;;;;;1.48;96.27;96228.28;5021855;28;20629;-84
2022/12/28 00:12:59;;;;;;;7.30;3.57;;;;;;;1.45;96.15;96228.44;5022433;28;20746;-84
2022/12/28 00:15:24;;;;;;;6.13;3.53;;;;;;;1.41;96.07;96223.50;5012588;28;20179;-85
2022/12/28 00:17:49;;;;;;;6.87;4.20;;;;;;;1.31;97.67;96227.38;5018046;28;20213;-84
2022/12/28 00:20:14;;;;;;;4.27;3.50;;;;;;;1.45;96.93;96231.00;5013346;28;20217;-85
2022/12/28 00:22:40;;;;;;;5.07;3.40;;;;;;;1.40;96.85;96226.94;5029026;28;20269;-84
2022/12/28 00:25:06;;;;;;;5.30;3.40;;;;;;;1.40;97.07;96232.03;5023267;28;20206;-85
2022/12/28 00:27:31;;;;;;;5.20;3.60;;;;;;;1.50;96.27;96223.91;5020103;28;20604;-85
2022/12/28 00:29:56;;;;;;;7.80;4.03;;;;;;;1.45;96.68;96224.16;5014680;28;20262;-85
2022/12/28 00:32:21;;;;;;;7.57;3.57;;;;;;;1.40;97.33;96215.88;5027610;28;20194;-85
2022/12/28 00:34:47;;;;;;;5.10;3.33;;;;;;;1.39;96.86;96211.66;5017616;28;20259;-85
2022/12/28 00:37:12;;;;;;;4.47;3.80;;;;;;;1.53;95.87;96216.09;5022778;28;20670;-85
2022/12/28 00:39:37;;;;;;;6.20;4.10;;;;;;;1.48;96.80;96203.50;5028053;28;20190;-84
2022/12/28 00:42:03;;;;;;;6.63;2.93;;;;;;;1.52;96.29;96199.91;5026438;28;20193;-85
2022/12/28 00:44:28;;;;;;;3.80;3.20;;;;;;;1.61;95.61;96185.81;5021011;28;20191;-85
2022/12/28 00:46:54;;;;;;;6.17;3.73;;;;;;;1.60;94.49;96177.31;5000891;28;20237;-86
2022/12/28 00:49:19;;;;;;;3.60;3.07;;;;;;;1.51;95.54;96187.19;5010810;28;20687;-85
2022/12/28 00:51:44;;;;;;;4.53;3.40;;;;;;;1.56;95.82;96183.47;5022307;28;20667;-84
2022/12/28 00:54:10;;;;;;;4.47;3.50;;;;;;;1.47;95.89;96185.69;5010546;28;20187;-84
2022/12/28 00:56:35;;;;;;;7.23;4.00;;;;;;;1.33;96.42;96181.25;5016605;28;20233;-84
2022/12/28 00:59:00;;;;;;;6.83;3.73;;;;;;;1.43;95.80;96167.09;5018607;28;20201;-85
2022/12/28 01:01:26;;;;;;;7.40;3.70;;;;;;;1.46;96.10;96164.38;5019458;28;20518;-84
2022/12/28 01:03:54;;;;;;;5.67;3.57;;;;;;;1.47;96.34;96162.66;5023940;28;20612;-84
2022/12/28 01:06:19;;;;;;;5.90;3.80;;;;;;;1.50;96.22;96165.03;5013635;28;20217;-85
2022/12/28 01:08:45;;;;;;;5.23;3.00;;;;;;;1.45;96.49;96160.16;5019539;28;20570;-85
2022/12/28 01:11:13;;;;;;;4.37;2.70;;;;;;;1.58;95.95;96160.38;5017881;28;20551;-85
2022/12/28 01:13:38;;;;;;;3.10;2.27;;;;;;;1.62;96.52;96156.75;5011239;28;20182;-85
2022/12/28 01:16:21;;;;;;;2.30;2.10;;;;;;;1.83;95.40;96165.06;5023564;28;20205;-86
2022/12/28 01:18:48;;;;;;;3.53;1.90;;;;;;;1.92;94.98;96156.91;5011417;28;20241;-85
2022/12/28 01:21:18;;;;;;;4.17;1.80;;;;;;;2.03;94.10;96148.63;5008379;28;20179;-85
2022/12/28 01:23:44;;;;;;;2.47;1.83;;;;;;;2.07;93.71;96148.41;4993137;28;20184;-85
2022/12/28 01:26:10;;;;;;;5.33;1.83;;;;;;;2.14;94.40;96151.47;5013860;28;20199;-84
2022/12/28 01:28:36;;;;;;;3.43;1.40;;;;;;;2.30;93.41;96152.31;5018544;28;20282;-84
2022/12/28 01:31:09;;;;;;;2.33;1.40;;;;;;;2.35;92.56;96145.19;5009437;28;20198;-85
2022/12/28 01:33:35;;;;;;;3.47;1.60;;;;;;;2.40;92.50;96138.09;5019509;28;20183;-85
2022/12/28 01:36:15;;;;;;;2.13;1.20;;;;;;;2.53;92.80;96133.09;5019279;28;20189;-85
2022/12/28 01:38:40;;;;;;;1.57;1.23;;;;;;;2.59;91.47;96134.53;5024825;28;20281;-84
2022/12/28 01:41:07;;;;;;;1.97;1.47;;;;;;;2.62;91.17;96132.59;5021629;28;20258;-86
2022/12/28 01:43:55;;;;;;;3.20;1.37;;;;;;;2.69;90.88;96133.91;5023192;28;20187;-84
2022/12/28 01:46:44;;;;;;;2.40;1.50;;;;;;;2.71;90.43;96129.53;4994303;28;20321;-85
2022/12/28 01:49:13;;;;;;;1.70;1.30;;;;;;;2.63;90.83;96129.13;4992288;28;20192;-86
2022/12/28 01:51:47;;;;;;;3.50;1.63;;;;;;;2.52;91.17;96124.59;5001404;28;20202;-85
2022/12/28 01:54:12;;;;;;;1.83;1.50;;;;;;;2.67;90.82;96125.50;5026896;28;20192;-85
2022/12/28 01:56:38;;;;;;;3.00;1.80;;;;;;;2.60;90.85;96123.34;5023816;28;20206;-86
2022/12/28 01:59:04;;;;;;;2.37;1.87;;;;;;;2.58;91.49;96120.06;5023053;28;20558;-86
2022/12/28 02:01:29;;;;;;;2.43;2.10;;;;;;;2.64;91.49;96117.94;5022492;28;20210;-86
2022/12/28 02:03:55;;;;;;;3.27;1.53;;;;;;;2.63;91.44;96124.00;5026933;28;20565;-85
2022/12/28 02:06:20;;;;;;;2.27;1.90;;;;;;;2.60;91.54;96121.59;5027408;28;20678;-85
2022/12/28 02:08:57;;;;;;;2.70;2.13;;;;;;;2.57;91.84;96119.22;5020960;28;20229;-84
2022/12/28 02:11:22;;;;;;;2.60;2.00;;;;;;;2.60;91.86;96128.47;5022947;28;20190;-86
2022/12/28 02:13:50;;;;;;;4.50;2.00;;;;;;;2.59;92.29;96116.56;5022776;28;20606;-84
2022/12/28 02:16:15;;;;;;;4.20;2.10;;;;;;;2.62;91.80;96114.66;5013622;28;20230;-84
2022/12/28 02:18:41;;;;;;;3.30;2.13;;;;;;;2.53;91.73;96108.28;5024316;28;20236;-83
2022/12/28 02:21:38;;;;;;;2.83;2.00;;;;;;;2.60;91.91;96105.41;5024325;28;20620;-85
2022/12/28 02:24:43;;;;;;;5.40;2.03;;;;;;;2.51;92.03;96094.75;5018295;28;20222;-85
2022/12/28 02:27:28;;;;;;;2.37;2.00;;;;;;;2.60;91.85;96092.59;5022128;28;20721;-85
2022/12/28 02:30:00;;;;;;;2.10;1.90;;;;;;;2.61;91.40;96084.78;4996266;28;20195;-84
2022/12/28 02:32:49;;;;;;;3.33;1.90;;;;;;;2.53;92.11;96071.56;5027824;28;20182;-84
2022/12/28 02:35:39;;;;;;;5.07;1.97;;;;;;;2.57;91.98;96067.94;5017397;28;20198;-84
2022/12/28 02:38:17;;;;;;;2.93;1.93;;;;;;;2.52;92.02;96069.94;5023144;28;20221;-84
2022/12/28 02:40:53;;;;;;;3.17;2.20;;;;;;;2.45;92.48;96069.44;5027112;28;20194;-84
2022/12/28 02:43:19;;;;;;;3.13;1.87;;;;;;;2.51;92.58;96058.03;5005497;28;20281;-84
2022/12/28 02:51:46;;;;;;;2.23;1.70;;;;;;;2.49;92.06;96047.88;5020851;28;20194;-84
2022/12/28 02:57:45;;;;;;;2.53;1.70;;;;;;;2.49;92.41;96031.66;5028592;28;20213;-85
2022/12/28 03:00:16;;;;;;;3.90;1.90;;;;;;;2.52;92.23;96045.13;5018941;28;20206;-84
2022/12/28 03:03:06;;;;;;;2.77;1.80;;;;;;;2.54;92.35;96045.03;5014377;28;20182;-85
2022/12/28 03:08:51;;;;;;;2.83;1.87;;;;;;;2.57;91.83;96041.47;5018482;28;20669;-84
2022/12/28 03:11:22;;;;;;;2.97;2.00;;;;;;;2.54;91.87;96033.03;5004311;28;20197;-85
2022/12/28 03:13:59;;;;;;;2.80;1.73;;;;;;;2.52;92.70;96024.59;5000099;28;20274;-85
2022/12/28 03:25:41;;;;;;;2.23;1.80;;;;;;;2.57;92.32;96033.78;5018828;28;20290;-84
2022/12/28 03:33:09;;;;;;;2.87;1.60;;;;;;;2.44;92.25;96008.84;5019711;28;20672;-85
2022/12/28 03:35:44;;;;;;;3.57;1.90;;;;;;;2.48;92.90;95997.50;5012273;28;20266;-85
2022/12/28 03:38:12;;;;;;;2.30;1.57;;;;;;;2.53;93.03;96010.88;5014650;28;20210;-84
2022/12/28 03:40:43;;;;;;;3.13;1.97;;;;;;;2.52;92.84;96003.28;5019967;28;20196;-85
2022/12/28 03:46:22;;;;;;;4.13;1.50;;;;;;;2.68;92.43;95993.78;5018931;28;20204;-86
2022/12/28 03:48:48;;;;;;;1.80;1.30;;;;;;;2.62;92.38;95998.44;5024109;28;20194;-85
2022/12/28 03:51:15;;;;;;;3.23;1.60;;;;;;;2.58;92.81;95990.13;5018830;28;20210;-85
2022/12/28 03:53:42;;;;;;;2.47;1.60;;;;;;;2.62;93.27;96001.00;5012344;28;20566;-85
2022/12/28 03:56:13;;;;;;;2.37;1.47;;;;;;;2.63;92.71;95993.22;5006774;28;20871;-84
2022/12/28 03:58:39;;;;;;;3.23;1.57;;;;;;;2.71;92.51;96003.84;5007146;28;20698;-85
2022/12/28 04:01:04;;;;;;;3.77;1.47;;;;;;;2.77;92.44;96002.69;5022869;28;20190;-84
2022/12/28 04:03:30;;;;;;;1.47;1.07;;;;;;;2.80;92.42;96005.06;5021211;28;20194;-84
2022/12/28 04:05:55;;;;;;;1.47;1.20;;;;;;;2.86;92.27;95988.50;5010965;28;20694;-84
2022/12/28 04:08:20;;;;;;;2.40;1.30;;;;;;;2.99;91.26;95987.69;5012378;28;20187;-84
2022/12/28 04:10:45;;;;;;;1.23;1.13;;;;;;;2.97;90.93;95981.81;5022786;28;20187;-84
2022/12/28 04:13:11;;;;;;;4.37;1.87;;;;;;;2.95;90.94;95975.97;5016992;28;20195;-84
2022/12/28 04:15:36;;;;;;;2.53;1.17;;;;;;;2.94;91.22;95971.75;5029156;28;20562;-85
2022/12/28 04:18:01;;;;;;;1.30;1.20;;;;;;;2.94;90.48;95964.06;5017166;28;20298;-85
2022/12/28 04:20:27;;;;;;;1.17;1.07;;;;;;;2.99;90.20;95969.72;5018700;28;20194;-84
2022/12/28 04:22:52;;;;;;;1.97;1.20;;;;;;;3.01;90.43;95970.47;5011452;28;20611;-84
2022/12/28 04:25:18;;;;;;;2.07;1.40;;;;;;;2.82;91.04;95975.03;5021452;28;20206;-84
2022/12/28 04:27:43;;;;;;;2.17;1.10;;;;;;;2.91;91.06;95971.09;5020086;28;20244;-85
2022/12/28 04:30:09;;;;;;;1.30;1.20;;;;;;;2.93;91.04;95969.28;5018349;28;20241;-84
2022/12/28 04:32:34;;;;;;;1.73;1.30;;;;;;;3.01;90.48;95970.47;5004087;28;20194;-85
2022/12/28 04:35:00;;;;;;;1.53;1.10;;;;;;;2.99;90.85;95966.31;5019712;28;20283;-84
2022/12/28 04:37:25;;;;;;;1.17;1.10;;;;;;;2.96;90.26;95969.09;5025418;28;20233;-85
2022/12/28 04:39:50;;;;;;;1.43;0.93;;;;;;;3.05;90.30;95968.53;5016288;28;20663;-84
2022/12/28 04:42:15;;;;;;;1.63;1.10;;;;;;;2.99;90.20;95963.75;5020307;28;20662;-86
2022/12/28 04:44:41;;;;;;;1.63;0.90;;;;;;;3.03;90.27;95963.50;5004383;28;20218;-85
2022/12/28 04:47:06;;;;;;;2.00;0.90;;;;;;;3.10;90.12;95963.97;5013170;28;20235;-84
2022/12/28 04:49:31;;;;;;;1.47;0.90;;;;;;;3.17;89.23;95965.22;5019387;28;20261;-85
2022/12/28 04:51:57;;;;;;;0.90;0.90;;;;;;;3.08;89.75;95961.47;5018246;28;20212;-85
2022/12/28 04:54:22;;;;;;;3.20;1.03;;;;;;;3.13;89.15;95962.03;5021944;28;20183;-85
2022/12/28 04:56:47;;;;;;;1.77;0.77;;;;;;;3.08;89.09;95958.91;5020865;28;20620;-85
2022/12/28 04:59:13;;;;;;;1.10;0.90;;;;;;;2.99;89.95;95951.75;5021840;28;20191;-86
2022/12/28 05:01:41;;;;;;;2.73;0.80;;;;;;;3.10;90.01;95954.53;5023401;28;20194;-85
2022/12/28 05:04:06;;;;;;;4.57;0.80;;;;;;;3.18;89.79;95950.66;5025117;28;20217;-85
2022/12/28 05:06:31;;;;;;;2.17;1.00;;;;;;;3.32;89.21;95951.47;5021357;28;20210;-85
2022/12/28 05:08:57;;;;;;;1.80;0.90;;;;;;;3.35;89.22;95948.72;5020331;28;20257;-85
2022/12/28 05:11:26;;;;;;;1.80;0.80;;;;;;;3.36;89.08;95945.25;5007341;28;20187;-86
2022/12/28 05:13:51;;;;;;;2.00;0.80;;;;;;;3.50;88.57;95944.38;5019472;28;20179;-85
2022/12/28 05:16:21;;;;;;;2.00;1.37;;;;;;;3.56;88.43;95956.84;5021593;28;20237;-85
2022/12/28 05:18:46;;;;;;;1.23;1.03;;;;;;;3.60;87.38;95960.88;5023923;28;20178;-85
2022/12/28 05:21:13;;;;;;;2.13;1.07;;;;;;;3.70;87.26;95961.94;5029588;28;20285;-85
2022/12/28 05:23:39;;;;;;;2.43;1.27;;;;;;;3.69;87.06;95956.91;5018276;28;20247;-84
2022/12/28 05:26:06;;;;;;;2.27;1.00;;;;;;;3.75;86.60;95955.72;5022135;28;20203;-85
2022/12/28 05:28:31;;;;;;;1.20;1.10;;;;;;;3.79;86.59;95957.97;5006916;28;20210;-83
2022/12/28 05:31:01;;;;;;;1.93;0.97;;;;;;;3.88;86.43;95959.97;5028107;28;20588;-86
2022/12/28 05:33:28;;;;;;;2.40;0.93;;;;;;;3.84;86.63;95955.94;5026834;28;20261;-84
2022/12/28 05:35:53;;;;;;;3.70;0.90;;;;;;;3.80;87.03;95951.09;5019184;28;20183;-85
2022/12/28 05:38:19;;;;;;;8.97;2.40;;;;;;;3.75;86.72;95953.13;5021106;28;20282;-87
2022/12/28 05:40:44;;;;;;;3.80;0.97;;;;;;;3.82;86.55;95944.94;5019704;28;20183;-87
2022/12/28 05:43:22;;;;;;;3.87;1.07;;;;;;;3.76;86.31;95947.91;5025289;28;20277;-92
2022/12/28 05:45:47;;;;;;;3.03;1.10;;;;;;;3.79;85.85;95934.84;5026293;28;20206;-83
2022/12/28 05:48:12;;;;;;;2.53;0.97;;;;;;;3.70;85.92;95936.25;5020497;28;20208;-85
2022/12/28 05:50:38;;;;;;;3.27;1.27;;;;;;;3.80;86.27;95927.97;5023130;28;20189;-84
2022/12/28 05:53:03;;;;;;;2.73;1.23;;;;;;;3.72;86.25;95928.47;5027983;28;20194;-83
2022/12/28 05:55:29;;;;;;;2.33;1.00;;;;;;;3.68;87.05;95920.13;5022833;28;20184;-85
2022/12/28 05:57:54;;;;;;;2.07;0.93;;;;;;;3.69;86.60;95921.78;5012031;28;20229;-85
2022/12/28 06:00:20;;;;;;;2.20;1.10;;;;;;;3.74;86.26;95915.53;5016101;28;20202;-84
2022/12/28 06:02:45;;;;;;;3.83;1.57;;;;;;;3.80;86.43;95918.53;5027136;28;20252;-86
2022/12/28 06:05:10;;;;;;;2.20;1.20;;;;;;;3.69;87.18;95911.50;5026981;28;20200;-85
2022/12/28 06:07:38;;;;;;;4.30;2.10;;;;;;;3.87;86.48;95903.53;5018465;28;20206;-85
2022/12/28 06:10:03;;;;;;;2.47;1.43;;;;;;;3.84;86.13;95896.84;5020749;28;20190;-85
2022/12/28 06:12:28;;;;;;;1.77;1.00;;;;;;;3.88;86.59;95907.75;5022542;28;20274;-84
2022/12/28 06:14:54;;;;;;;3.03;1.33;;;;;;;3.87;86.03;95904.38;5027602;28;20201;-84
2022/12/28 06:17:19;;;;;;;2.70;0.90;;;;;;;3.88;85.98;95912.88;5027094;28;20308;-84
2022/12/28 06:19:44;;;;;;;2.07;0.83;;;;;;;3.84;85.87;95912.28;5030619;28;20197;-85
2022/12/28 06:22:10;;;;;;;1.27;0.80;;;;;;;3.78;85.71;95899.81;5021099;28;20244;-84
2022/12/28 06:24:35;;;;;;;1.80;1.13;;;;;;;3.70;86.15;95908.00;5022631;28;20199;-83
2022/12/28 06:27:00;;;;;;;3.40;1.10;;;;;;;3.65;86.65;95896.38;5023841;28;20211;-84
2022/12/28 06:29:25;;;;;;;3.20;1.00;;;;;;;3.64;86.54;95897.31;5023918;28;20600;-85
2022/12/28 06:31:52;;;;;;;6.80;1.13;;;;;;;3.55;87.53;95905.59;5021221;28;20199;-84
2022/12/28 06:34:18;;;;;;;4.00;2.40;;;;;;;3.57;87.48;95903.75;5025860;28;20187;-84
2022/12/28 06:36:44;;;;;;;2.27;1.50;;;;;;;3.55;87.92;95911.56;5022124;28;20594;-83
2022/12/28 06:39:11;;;;;;;1.90;1.37;;;;;;;3.61;88.06;95913.72;5011450;28;20218;-85
2022/12/28 06:41:37;;;;;;;2.70;1.20;;;;;;;3.58;88.15;95901.09;5006095;28;20660;-84
2022/12/28 06:44:05;;;;;;;3.73;1.90;;;;;;;3.62;88.22;95902.56;5019697;28;20217;-84
2022/12/28 06:46:30;;;;;;;4.67;1.97;;;;;;;3.60;88.59;95898.41;5027467;28;20269;-82
2022/12/28 06:48:56;;;;;;;3.93;1.53;;;;;;;3.79;87.62;95890.34;5020967;28;20856;-83
2022/12/28 06:51:27;;;;;;;3.97;1.27;;;;;;;3.81;87.55;95889.34;5022240;28;20658;-82
2022/12/28 06:53:52;;;;;;;2.20;1.37;;;;;;;3.92;87.46;95891.22;5026507;28;20275;-84
2022/12/28 06:56:23;;;;;;;2.77;1.27;;;;;;;3.89;87.10;95891.44;5013851;28;20232;-81
2022/12/28 06:58:49;;;;;;;2.13;1.10;;;;;;;3.91;87.40;95892.97;5012258;28;20191;-87
2022/12/28 07:01:20;;;;;;;5.60;2.67;;;;;;;3.90;87.30;95895.66;5020114;28;20872;-87
2022/12/28 07:03:47;;;;;;;3.70;1.50;;;;;;;3.97;87.01;95887.44;5028419;28;20267;-85
2022/12/28 07:06:14;;;;;;;5.40;2.40;;;;;;;4.04;86.69;95884.47;5004192;28;20212;-86
2022/12/28 07:08:40;;;;;;;2.30;0.90;;;;;;;4.07;86.39;95876.59;5004473;28;20213;-85
2022/12/28 07:11:14;;;;;;;4.03;1.30;;;;;;;4.18;86.08;95881.84;5024116;28;20604;-86
2022/12/28 07:13:39;;;;;;;3.93;2.60;;;;;;;4.21;85.33;95872.16;5004489;28;20186;-85
2022/12/28 07:16:08;;;;;;;2.67;1.60;;;;;;;4.20;85.92;95879.97;5017929;28;20190;-86
2022/12/28 07:18:34;;;;;;;4.17;2.10;;;;;;;4.27;84.76;95881.22;5019982;28;20178;-85
2022/12/28 07:21:01;;;;;;;4.27;2.40;;;;;;;4.46;84.18;95876.50;5015231;28;20255;-87
2022/12/28 07:23:29;;;;;;;4.13;2.33;;;;;;;4.43;84.57;95870.75;5030740;28;20285;-86
2022/12/28 07:25:55;;;;;;;6.10;3.37;;;;;;;4.48;84.40;95868.69;5018307;28;20214;-87
2022/12/28 07:28:20;;;;;;;4.70;3.00;;;;;;;4.48;84.04;95863.53;5019980;28;20198;-86
2022/12/28 07:30:46;;;;;;;2.90;1.73;;;;;;;4.44;83.65;95868.09;5034831;28;20205;-85
2022/12/28 07:33:11;;;;;;;4.80;2.13;;;;;;;4.46;83.82;95865.41;5012349;28;20189;-87
2022/12/28 07:35:36;;;;;;;1.60;1.30;;;;;;;4.49;83.65;95862.63;5010596;28;20228;-86
2022/12/28 07:38:02;;;;;;;2.33;1.27;;;;;;;4.55;83.07;95859.66;5027832;28;20655;-85
2022/12/28 07:40:27;;;;;;;4.80;1.30;;;;;;;4.61;83.07;95864.38;5022064;28;20617;-86
2022/12/28 07:42:52;;;;;;;2.67;1.10;;;;;;;4.59;82.87;95863.63;5024582;28;20194;-87
2022/12/28 07:45:18;;;;;;;2.97;1.73;;;;;;;4.60;82.78;95861.91;5018196;28;20207;-87
2022/12/28 07:47:43;;;;;;;3.53;1.73;;;;;;;4.64;83.15;95858.19;5028318;28;20297;-86
2022/12/28 07:50:08;;;;;;;2.30;1.30;;;;;;;4.69;82.39;95861.28;5008006;28;20197;-87
2022/12/28 07:52:35;;;;;;;4.30;2.00;;;;;;;4.62;82.40;95860.88;5024522;28;20798;-87
2022/12/28 07:55:01;;;;;;;2.30;1.30;;;;;;;4.66;82.84;95857.16;5014798;28;20201;-87
2022/12/28 07:57:26;;;;;;;3.57;0.97;;;;;;;4.78;82.41;95853.78;5024571;28;20201;-86
2022/12/28 07:59:51;;;;;;;2.07;1.50;;;;;;;4.75;81.77;95850.56;5025343;28;20191;-87
2022/12/28 08:02:17;;;;;;;4.70;1.57;;;;;;;4.85;81.77;95846.44;5019118;28;20636;-86
2022/12/28 08:04:43;;;;;;;5.93;2.40;;;;;;;4.77;82.22;95846.13;5016391;28;20191;-86
2022/12/28 08:07:08;;;;;;;2.57;2.10;;;;;;;4.83;81.33;95849.13;5004744;28;20717;-88
2022/12/28 08:09:34;;;;;;;3.97;2.50;;;;;;;4.84;80.97;95853.34;5027271;28;20229;-85
2022/12/28 08:12:01;;;;;;;5.27;3.47;;;;;;;5.02;80.57;95850.41;5018724;28;20260;-86
2022/12/28 08:14:27;;;;;;;9.13;6.00;;;;;;;5.03;80.55;95849.50;5014646;28;20280;-86
2022/12/28 08:16:53;;;;;;;7.37;5.47;;;;;;;4.94;80.72;95850.13;5022451;28;20221;-85
2022/12/28 08:19:18;;;;;;;8.77;4.40;;;;;;;5.01;80.51;95852.16;5021947;28;20190;-85
2022/12/28 08:21:44;;;;;;;6.27;3.23;;;;;;;5.10;80.73;95848.13;5029908;28;20206;-85
2022/12/28 08:24:13;;;;;;;4.03;1.83;;;;;;;5.14;80.79;95856.50;5026121;28;20197;-86
2022/12/28 08:26:40;;;;;;;7.13;2.90;;;;;;;5.07;80.11;95853.50;5023568;28;20262;-86
2022/12/28 08:29:07;;;;;;;5.43;2.40;;;;;;;5.12;79.77;95856.56;5006969;28;20201;-86
2022/12/28 08:31:36;;;;;;;4.30;2.30;;;;;;;5.27;79.57;95849.53;5028419;28;20214;-86
2022/12/28 08:34:02;;;;;;;5.17;3.07;;;;;;;5.21;79.28;95843.09;5016332;28;20374;-86
2022/12/28 08:36:28;;;;;;;2.60;1.50;;;;;;;5.22;79.12;95841.34;5027512;28;20682;-86
2022/12/28 08:38:53;;;;;;;2.47;1.30;;;;;;;5.24;78.82;95842.84;5026463;28;20199;-86
2022/12/28 08:41:23;;;;;;;1.83;1.10;;;;;;;5.27;78.89;95842.63;5004469;28;20201;-84
2022/12/28 08:43:50;;;;;;;2.40;1.10;;;;;;;5.31;78.89;95843.25;5006996;28;20229;-86
2022/12/28 08:46:21;;;;;;;2.50;2.20;;;;;;;5.27;79.10;95847.78;5006869;28;20304;-86
2022/12/28 08:48:48;;;;;;;3.27;0.90;;;;;;;5.35;78.58;95840.34;5001216;28;20193;-86
2022/12/28 08:51:22;;;;;;;2.00;1.00;;;;;;;5.52;78.12;95839.16;5034718;28;20206;-86
2022/12/28 08:53:47;;;;;;;1.57;1.10;;;;;;;5.49;78.03;95835.97;5019128;28;20189;-86
2022/12/28 08:56:18;;;;;;;2.27;1.90;;;;;;;5.66;77.84;95835.59;5027673;28;20186;-86
2022/12/28 08:58:45;;;;;;;2.43;1.40;;;;;;;5.57;78.19;95828.53;5024137;28;20194;-85
2022/12/28 09:01:12;;;;;;;1.47;1.20;;;;;;;5.77;77.95;95825.31;5007469;28;20191;-86
2022/12/28 09:03:40;;;;;;;2.27;1.10;;;;;;;5.56;77.47;95826.84;5004462;28;20187;-85
2022/12/28 09:06:07;;;;;;;1.83;1.13;;;;;;;5.89;77.08;95821.03;5009385;28;20210;-86
2022/12/28 09:08:33;;;;;;;2.33;1.50;;;;;;;5.81;76.87;95829.31;5017715;28;20189;-85
2022/12/28 09:11:00;;;;;;;2.60;2.10;;;;;;;5.82;76.85;95827.56;5022998;28;20201;-85
2022/12/28 09:13:25;;;;;;;4.07;1.63;;;;;;;5.97;76.39;95819.56;5019032;28;20573;-86
2022/12/28 09:15:58;;;;;;;2.17;1.97;;;;;;;5.99;76.89;95823.78;5008418;28;20187;-86
2022/12/28 09:18:24;;;;;;;3.60;3.30;;;;;;;6.08;76.40;95818.75;5022578;28;20206;-85
2022/12/28 09:20:49;;;;;;;2.27;1.60;;;;;;;5.89;76.25;95819.25;5018188;28;20481;-86
2022/12/28 09:23:14;;;;;;;2.73;1.37;;;;;;;5.87;76.08;95820.31;5024957;28;20201;-85
2022/12/28 09:25:39;;;;;;;1.67;1.30;;;;;;;6.06;75.81;95820.63;5024718;28;20239;-85
2022/12/28 09:28:05;;;;;;;2.07;1.67;;;;;;;5.86;76.29;95818.69;5016167;28;20223;-85
2022/12/28 09:30:30;;;;;;;5.80;2.93;;;;;;;5.97;76.21;95832.44;5006209;28;20272;-85
2022/12/28 09:35:39;;;;;;;4.80;1.77;;;;;;;6.15;75.47;95821.72;5023385;28;20278;-86
2022/12/28 09:38:04;;;;;;;2.53;1.83;;;;;;;6.08;75.76;95823.91;5016379;28;20248;-85
2022/12/28 09:40:30;;;;;;;3.10;1.47;;;;;;;6.14;75.31;95812.34;5006529;28;20191;-86
2022/12/28 09:42:55;;;;;;;4.13;1.00;;;;;;;6.21;74.85;95819.50;5023294;28;20202;-86
2022/12/28 09:45:24;;;;;;;2.13;1.00;;;;;;;6.31;74.96;95824.81;5029644;28;20249;-85
2022/12/28 09:47:54;;;;;;;2.70;1.80;;;;;;;6.35;74.87;95820.22;5018526;28;20203;-86
2022/12/28 09:50:28;;;;;;;2.10;1.20;;;;;;;6.32;75.05;95821.28;5025311;28;20186;-85
2022/12/28 09:53:14;;;;;;;3.90;1.40;;;;;;;6.41;74.68;95818.00;5001558;28;20198;-86
2022/12/28 09:55:40;;;;;;;3.23;2.03;;;;;;;6.37;75.81;95829.50;5024864;28;20190;-85
2022/12/28 09:58:13;;;;;;;19.67;13.33;;;;;;;6.45;75.21;95818.63;5025524;28;20773;-85
2022/12/28 10:00:45;;;;;;;3.57;2.00;;;;;;;6.43;75.73;95817.88;4998869;28;20478;-86
2022/12/28 10:03:18;;;;;;;3.83;1.50;;;;;;;6.39;75.55;95812.16;5025499;28;20677;-86
2022/12/28 10:05:43;;;;;;;3.33;2.00;;;;;;;6.27;76.38;95809.66;5003242;28;20615;-85
2022/12/28 10:08:12;;;;;;;3.73;2.03;;;;;;;6.43;76.21;95815.31;5021773;28;20223;-86
2022/12/28 10:10:39;;;;;;;3.90;1.97;;;;;;;6.49;76.10;95809.69;4987629;28;20203;-86
2022/12/28 10:13:16;;;;;;;4.60;2.00;;;;;;;6.61;75.66;95807.94;4998937;28;20198;-86
2022/12/28 10:15:41;;;;;;;3.00;1.30;;;;;;;6.44;76.43;95804.88;5001739;28;20238;-86
2022/12/28 10:18:06;;;;;;;2.73;1.23;;;;;;;6.67;75.71;95812.63;5005352;28;20215;-86
2022/12/28 10:20:32;;;;;;;5.07;1.87;;;;;;;6.81;74.87;95805.50;5016218;28;20182;-87
2022/12/28 10:22:58;;;;;;;4.63;1.60;;;;;;;6.91;74.70;95797.03;5009191;28;20642;-85
2022/12/28 10:25:24;;;;;;;3.13;1.50;;;;;;;6.86;74.55;95799.13;5006602;28;20257;-85
2022/12/28 10:27:50;;;;;;;3.10;1.57;;;;;;;6.79;75.23;95802.19;4999679;28;20314;-87
2022/12/28 10:30:25;;;;;;;3.90;2.37;;;;;;;6.87;74.38;95786.09;5014758;28;20187;-86
2022/12/28 10:33:00;;;;;;;2.83;1.80;;;;;;;7.05;73.28;95789.00;5020812;28;20211;-86
2022/12/28 10:35:39;;;;;;;2.70;1.50;;;;;;;7.24;73.09;95780.63;5008889;28;20189;-86
2022/12/28 10:38:22;;;;;;;2.90;1.97;;;;;;;7.17;73.14;95775.16;5019774;28;20215;-86
2022/12/28 10:41:00;;;;;;;2.50;2.30;;;;;;;7.56;72.66;95776.31;5005715;28;20191;-85
2022/12/28 10:43:32;;;;;;;3.00;2.80;;;;;;;7.52;72.89;95777.50;5021918;28;20187;-87
2022/12/28 10:45:58;;;;;;;2.43;1.90;;;;;;;7.29;72.83;95781.09;5014676;28;20871;-86
2022/12/28 10:48:32;;;;;;;5.33;4.30;;;;;;;7.33;72.68;95767.84;5007240;28;20221;-83
2022/12/28 10:51:12;;;;;;;3.67;2.53;;;;;;;7.40;72.57;95778.47;5014031;28;20194;-85
2022/12/28 10:53:38;;;;;;;3.83;2.37;;;;;;;7.30;72.40;95764.66;5003030;28;20287;-85
2022/12/28 10:56:12;;;;;;;2.80;1.63;;;;;;;7.26;72.06;95761.50;5014006;28;20214;-85
2022/12/28 10:58:48;;;;;;;3.47;1.70;;;;;;;7.25;73.31;95761.63;5023662;28;20740;-86
2022/12/28 11:01:13;;;;;;;4.00;2.10;;;;;;;7.03;73.47;95765.91;5025748;28;20680;-86
2022/12/28 11:03:41;;;;;;;2.57;2.13;;;;;;;7.03;73.48;95750.41;5024996;28;20186;-85
2022/12/28 11:06:09;;;;;;;3.63;1.80;;;;;;;7.08;73.69;95748.28;4998552;28;20249;-87
2022/12/28 11:08:35;;;;;;;2.33;1.63;;;;;;;7.18;73.03;95752.72;5019549;28;20201;-85
2022/12/28 11:11:00;;;;;;;3.17;1.50;;;;;;;7.08;74.08;95748.28;5020512;28;20195;-85
2022/12/28 11:13:26;;;;;;;2.67;1.93;;;;;;;7.05;73.91;95740.78;5001703;28;20221;-86
2022/12/28 11:15:51;;;;;;;2.77;1.50;;;;;;;7.04;73.41;95743.47;5008310;28;20193;-87
2022/12/28 11:18:17;;;;;;;1.73;1.30;;;;;;;7.20;73.97;95736.16;5003638;28;20278;-85
2022/12/28 11:20:48;;;;;;;2.00;1.50;;;;;;;7.38;72.80;95731.28;5000387;28;20196;-85
2022/12/28 11:23:17;;;;;;;3.97;1.80;;;;;;;7.21;72.61;95731.81;5043881;28;20198;-83
2022/12/28 11:25:43;;;;;;;3.60;1.87;;;;;;;7.56;72.73;95724.63;5028699;28;20197;-85
2022/12/28 11:28:14;;;;;;;2.03;1.83;;;;;;;7.63;71.92;95723.19;5051112;28;20210;-85
2022/12/28 11:30:41;;;;;;;3.30;2.43;;;;;;;7.50;72.30;95713.97;5024480;28;20503;-86
2022/12/28 11:33:08;;;;;;;2.97;1.73;;;;;;;7.53;71.65;95708.56;5020866;28;20266;-86
2022/12/28 11:35:37;;;;;;;2.53;2.10;;;;;;;7.64;71.44;95714.47;5014012;28;20186;-86
2022/12/28 11:38:04;;;;;;;3.40;2.30;;;;;;;7.42;71.49;95709.44;5020832;28;20261;-86
2022/12/28 11:40:42;;;;;;;4.97;2.60;;;;;;;7.55;71.86;95710.06;5016471;28;20217;-87
2022/12/28 11:43:27;;;;;;;2.93;1.83;;;;;;;7.89;70.68;95697.78;5022423;28;20224;-86
2022/12/28 11:45:55;;;;;;;1.70;1.40;;;;;;;7.74;70.74;95696.44;5025233;28;20199;-87
2022/12/28 11:48:42;;;;;;;1.70;1.10;;;;;;;7.74;70.67;95695.63;5004364;28;20219;-86
2022/12/28 11:51:28;;;;;;;2.60;1.33;;;;;;;7.62;71.27;95690.53;5024128;28;20174;-85
2022/12/28 11:54:04;;;;;;;1.53;1.30;;;;;;;7.70;71.65;95695.06;5017472;28;20664;-85
2022/12/28 11:56:42;;;;;;;2.93;1.30;;;;;;;8.05;70.84;95686.97;5013124;28;20256;-86
2022/12/28 11:59:26;;;;;;;1.70;1.20;;;;;;;8.01;70.31;95690.75;5020694;28;20255;-86
2022/12/28 12:02:16;;;;;;;7.50;1.23;;;;;;;8.19;70.74;95684.03;5018154;28;20270;-86
2022/12/28 12:04:43;;;;;;;5.33;1.33;;;;;;;7.98;70.73;95683.25;5018184;28;20199;-86
2022/12/28 12:07:22;;;;;;;1.77;0.90;;;;;;;8.32;69.52;95678.66;5011613;28;20631;-86
2022/12/28 12:10:10;;;;;;;1.37;1.10;;;;;;;8.61;69.03;95662.44;5003738;28;20195;-85
2022/12/28 12:12:36;;;;;;;3.87;1.50;;;;;;;8.73;68.46;95667.34;5021277;28;20218;-86
2022/12/28 12:15:08;;;;;;;1.90;1.10;;;;;;;8.90;67.27;95659.88;5002842;28;20194;-85
2022/12/28 12:17:44;;;;;;;1.23;1.00;;;;;;;8.87;66.92;95657.56;5013539;28;20210;-86
2022/12/28 12:20:24;;;;;;;1.40;0.90;;;;;;;9.16;65.83;95648.03;5017672;28;20182;-86